sensor_id;sensor_type;location;lat;lon;timestamp;pressure;altitude;pressure_sealevel;temperature;humidity
65872;BME280;52653;50.080;21.992;2023-06-19T00:00:46;99048.84;;;12.55;92.04
65872;BME280;52653;50.080;21.992;2023-06-19T00:03:38;99051.69;;;12.54;92.01
65872;BME280;52653;50.080;21.992;2023-06-19T00:06:11;99054.92;;;12.51;92.02
65872;BME280;52653;50.080;21.992;2023-06-19T00:08:44;99055.17;;;12.47;92.40
65872;BME280;52653;50.080;21.992;2023-06-19T00:11:17;99059.42;;;12.45;92.62
65872;BME280;52653;50.080;21.992;2023-06-19T00:13:51;99063.35;;;12.41;92.50
65872;BME280;52653;50.080;21.992;2023-06-19T00:16:24;99065.70;;;12.38;92.62
65872;BME280;52653;50.080;21.992;2023-06-19T00:18:57;99068.21;;;12.35;92.58
65872;BME280;52653;50.080;21.992;2023-06-19T00:21:33;99069.66;;;12.32;92.56
65872;BME280;52653;50.080;21.992;2023-06-19T00:24:06;99068.65;;;12.29;92.35
65872;BME280;52653;50.080;21.992;2023-06-19T00:26:41;99068.52;;;12.27;92.38
65872;BME280;52653;50.080;21.992;2023-06-19T00:29:14;99068.39;;;12.24;92.35
65872;BME280;52653;50.080;21.992;2023-06-19T00:31:48;99066.89;;;12.21;92.36
65872;BME280;52653;50.080;21.992;2023-06-19T00:34:21;99069.19;;;12.18;92.46
65872;BME280;52653;50.080;21.992;2023-06-19T00:36:55;99065.54;;;12.16;92.72
65872;BME280;52653;50.080;21.992;2023-06-19T00:39:27;99068.77;;;12.13;92.67
65872;BME280;52653;50.080;21.992;2023-06-19T00:42:00;99068.11;;;12.10;92.83
65872;BME280;52653;50.080;21.992;2023-06-19T00:44:34;99068.66;;;12.09;92.82
65872;BME280;52653;50.080;21.992;2023-06-19T00:47:07;99067.10;;;12.06;92.94
65872;BME280;52653;50.080;21.992;2023-06-19T00:49:40;99064.49;;;12.04;92.79
65872;BME280;52653;50.080;21.992;2023-06-19T00:52:12;99062.61;;;12.01;92.59
65872;BME280;52653;50.080;21.992;2023-06-19T00:54:46;99061.61;;;11.98;92.68
65872;BME280;52653;50.080;21.992;2023-06-19T00:57:19;99057.96;;;11.96;92.72
65872;BME280;52653;50.080;21.992;2023-06-19T00:59:53;99059.22;;;11.94;92.80
65872;BME280;52653;50.080;21.992;2023-06-19T01:02:26;99059.41;;;11.92;92.65
65872;BME280;52653;50.080;21.992;2023-06-19T01:04:59;99056.45;;;11.91;92.82
65872;BME280;52653;50.080;21.992;2023-06-19T01:07:43;99057.90;;;11.88;92.89
65872;BME280;52653;50.080;21.992;2023-06-19T01:10:21;99057.05;;;11.87;92.96
65872;BME280;52653;50.080;21.992;2023-06-19T01:13:00;99055.67;;;11.85;92.89
65872;BME280;52653;50.080;21.992;2023-06-19T01:15:33;99051.84;;;11.83;93.17
65872;BME280;52653;50.080;21.992;2023-06-19T01:18:08;99049.40;;;11.81;93.05
65872;BME280;52653;50.080;21.992;2023-06-19T01:20:42;99050.81;;;11.79;93.28
65872;BME280;52653;50.080;21.992;2023-06-19T01:23:15;99052.60;;;11.76;93.19
65872;BME280;52653;50.080;21.992;2023-06-19T01:25:48;99049.81;;;11.75;93.13
65872;BME280;52653;50.080;21.992;2023-06-19T01:28:21;99047.36;;;11.74;93.27
65872;BME280;52653;50.080;21.992;2023-06-19T01:30:56;99049.13;;;11.74;93.43
65872;BME280;52653;50.080;21.992;2023-06-19T01:33:32;99051.06;;;11.73;93.71
65872;BME280;52653;50.080;21.992;2023-06-19T01:36:07;99054.58;;;11.73;93.86
65872;BME280;52653;50.080;21.992;2023-06-19T01:38:42;99057.91;;;11.73;93.99
65872;BME280;52653;50.080;21.992;2023-06-19T01:41:16;99060.03;;;11.73;94.13
65872;BME280;52653;50.080;21.992;2023-06-19T01:43:51;99064.60;;;11.73;94.03
65872;BME280;52653;50.080;21.992;2023-06-19T01:46:24;99065.84;;;11.72;94.10
65872;BME280;52653;50.080;21.992;2023-06-19T01:48:57;99063.56;;;11.72;94.32
65872;BME280;52653;50.080;21.992;2023-06-19T01:51:30;99065.84;;;11.73;94.59
65872;BME280;52653;50.080;21.992;2023-06-19T01:54:04;99064.61;;;11.72;94.47
65872;BME280;52653;50.080;21.992;2023-06-19T01:56:39;99065.32;;;11.72;94.33
65872;BME280;52653;50.080;21.992;2023-06-19T01:59:11;99062.52;;;11.71;94.27
65872;BME280;52653;50.080;21.992;2023-06-19T02:01:44;99062.38;;;11.69;94.34
65872;BME280;52653;50.080;21.992;2023-06-19T02:04:17;99062.03;;;11.67;94.37
65872;BME280;52653;50.080;21.992;2023-06-19T02:06:49;99066.27;;;11.66;94.34
65872;BME280;52653;50.080;21.992;2023-06-19T02:09:22;99072.09;;;11.64;94.25
65872;BME280;52653;50.080;21.992;2023-06-19T02:11:54;99071.23;;;11.63;94.24
65872;BME280;52653;50.080;21.992;2023-06-19T02:14:27;99072.14;;;11.62;94.25
65872;BME280;52653;50.080;21.992;2023-06-19T02:17:00;99078.13;;;11.61;94.19
65872;BME280;52653;50.080;21.992;2023-06-19T02:19:32;99084.85;;;11.58;94.06
65872;BME280;52653;50.080;21.992;2023-06-19T02:22:06;99084.89;;;11.53;93.87
65872;BME280;52653;50.080;21.992;2023-06-19T02:24:39;99086.19;;;11.49;94.00
65872;BME280;52653;50.080;21.992;2023-06-19T02:27:13;99085.71;;;11.46;94.05
65872;BME280;52653;50.080;21.992;2023-06-19T02:29:48;99089.78;;;11.43;94.20
65872;BME280;52653;50.080;21.992;2023-06-19T02:32:22;99091.90;;;11.41;94.30
65872;BME280;52653;50.080;21.992;2023-06-19T02:34:54;99090.14;;;11.41;94.35
65872;BME280;52653;50.080;21.992;2023-06-19T02:37:27;99092.79;;;11.41;94.41
65872;BME280;52653;50.080;21.992;2023-06-19T02:40:00;99097.52;;;11.41;94.62
65872;BME280;52653;50.080;21.992;2023-06-19T02:42:36;99095.95;;;11.41;94.34
65872;BME280;52653;50.080;21.992;2023-06-19T02:45:10;99096.46;;;11.42;94.44
65872;BME280;52653;50.080;21.992;2023-06-19T02:47:44;99095.05;;;11.44;94.51
65872;BME280;52653;50.080;21.992;2023-06-19T02:50:19;99093.09;;;11.46;94.30
65872;BME280;52653;50.080;21.992;2023-06-19T02:52:53;99091.30;;;11.48;94.35
65872;BME280;52653;50.080;21.992;2023-06-19T02:55:26;99089.46;;;11.53;94.33
65872;BME280;52653;50.080;21.992;2023-06-19T02:58:00;99094.49;;;11.59;94.48
65872;BME280;52653;50.080;21.992;2023-06-19T03:00:33;99097.77;;;11.62;94.36
65872;BME280;52653;50.080;21.992;2023-06-19T03:03:05;99096.31;;;11.66;94.26
65872;BME280;52653;50.080;21.992;2023-06-19T03:05:39;99094.49;;;11.72;94.40
65872;BME280;52653;50.080;21.992;2023-06-19T03:08:11;99094.59;;;11.78;94.51
65872;BME280;52653;50.080;21.992;2023-06-19T03:10:45;99092.77;;;11.84;94.61
65872;BME280;52653;50.080;21.992;2023-06-19T03:13:18;99096.20;;;11.90;94.49
65872;BME280;52653;50.080;21.992;2023-06-19T03:15:50;99097.69;;;11.95;94.36
65872;BME280;52653;50.080;21.992;2023-06-19T03:18:23;99099.70;;;12.02;94.30
65872;BME280;52653;50.080;21.992;2023-06-19T03:20:56;99094.03;;;12.04;94.15
65872;BME280;52653;50.080;21.992;2023-06-19T03:23:29;99094.33;;;12.08;94.04
65872;BME280;52653;50.080;21.992;2023-06-19T03:26:01;99094.21;;;12.15;93.99
65872;BME280;52653;50.080;21.992;2023-06-19T03:28:35;99089.16;;;12.23;94.33
65872;BME280;52653;50.080;21.992;2023-06-19T03:31:10;99082.85;;;12.32;94.25
65872;BME280;52653;50.080;21.992;2023-06-19T03:33:43;99087.08;;;12.43;94.37
65872;BME280;52653;50.080;21.992;2023-06-19T03:36:16;99087.57;;;12.55;94.41
65872;BME280;52653;50.080;21.992;2023-06-19T03:38:53;99086.50;;;12.65;94.28
65872;BME280;52653;50.080;21.992;2023-06-19T03:41:30;99087.55;;;12.75;94.03
65872;BME280;52653;50.080;21.992;2023-06-19T03:44:03;99089.64;;;12.86;94.06
65872;BME280;52653;50.080;21.992;2023-06-19T03:46:36;99090.64;;;12.98;94.14
65872;BME280;52653;50.080;21.992;2023-06-19T03:49:09;99089.14;;;13.12;94.36
65872;BME280;52653;50.080;21.992;2023-06-19T03:51:41;99090.80;;;13.27;94.58
65872;BME280;52653;50.080;21.992;2023-06-19T03:54:14;99087.48;;;13.43;94.51
65872;BME280;52653;50.080;21.992;2023-06-19T03:56:47;99089.02;;;13.61;94.55
65872;BME280;52653;50.080;21.992;2023-06-19T03:59:20;99087.23;;;13.93;95.09
65872;BME280;52653;50.080;21.992;2023-06-19T04:01:56;99088.29;;;14.58;95.33
65872;BME280;52653;50.080;21.992;2023-06-19T04:04:29;99087.80;;;15.35;94.48
65872;BME280;52653;50.080;21.992;2023-06-19T04:07:03;99087.59;;;15.90;92.30
65872;BME280;52653;50.080;21.992;2023-06-19T04:09:36;99083.84;;;16.19;90.22
65872;BME280;52653;50.080;21.992;2023-06-19T04:12:09;99082.25;;;16.40;88.79
65872;BME280;52653;50.080;21.992;2023-06-19T04:14:42;99082.45;;;16.61;88.10
65872;BME280;52653;50.080;21.992;2023-06-19T04:17:16;99080.98;;;16.88;86.88
65872;BME280;52653;50.080;21.992;2023-06-19T04:19:53;99083.91;;;17.39;85.96
65872;BME280;52653;50.080;21.992;2023-06-19T04:22:25;99088.29;;;17.97;84.44
65872;BME280;52653;50.080;21.992;2023-06-19T04:24:58;99086.57;;;18.52;82.11
65872;BME280;52653;50.080;21.992;2023-06-19T04:27:32;99092.39;;;19.03;81.36
65872;BME280;52653;50.080;21.992;2023-06-19T04:30:06;99093.08;;;19.63;79.92
65872;BME280;52653;50.080;21.992;2023-06-19T04:32:39;99097.09;;;20.17;76.78
65872;BME280;52653;50.080;21.992;2023-06-19T04:35:12;99097.90;;;20.70;76.04
65872;BME280;52653;50.080;21.992;2023-06-19T04:37:45;99101.61;;;21.32;75.03
65872;BME280;52653;50.080;21.992;2023-06-19T04:40:20;99098.94;;;21.81;72.18
65872;BME280;52653;50.080;21.992;2023-06-19T04:42:53;99096.91;;;22.31;70.75
65872;BME280;52653;50.080;21.992;2023-06-19T04:45:26;99094.73;;;22.74;68.66
65872;BME280;52653;50.080;21.992;2023-06-19T04:47:58;99095.24;;;23.08;67.10
65872;BME280;52653;50.080;21.992;2023-06-19T04:50:34;99095.33;;;23.35;65.25
65872;BME280;52653;50.080;21.992;2023-06-19T04:53:09;99095.79;;;23.51;63.28
65872;BME280;52653;50.080;21.992;2023-06-19T04:55:47;99096.08;;;23.67;62.73
65872;BME280;52653;50.080;21.992;2023-06-19T04:58:21;99093.55;;;23.97;62.44
65872;BME280;52653;50.080;21.992;2023-06-19T05:00:53;99095.52;;;24.20;61.29
65872;BME280;52653;50.080;21.992;2023-06-19T05:03:26;99095.34;;;24.39;60.40
65872;BME280;52653;50.080;21.992;2023-06-19T05:05:59;99096.61;;;24.63;58.68
65872;BME280;52653;50.080;21.992;2023-06-19T05:08:33;99099.20;;;24.64;57.74
65872;BME280;52653;50.080;21.992;2023-06-19T05:11:05;99101.35;;;24.75;58.53
65872;BME280;52653;50.080;21.992;2023-06-19T05:13:38;99100.34;;;24.88;56.52
65872;BME280;52653;50.080;21.992;2023-06-19T05:16:11;99101.95;;;24.77;55.51
65872;BME280;52653;50.080;21.992;2023-06-19T05:18:48;99106.66;;;24.66;55.07
65872;BME280;52653;50.080;21.992;2023-06-19T05:21:22;99105.23;;;24.55;56.00
65872;BME280;52653;50.080;21.992;2023-06-19T05:23:54;99105.98;;;24.68;56.76
65872;BME280;52653;50.080;21.992;2023-06-19T05:26:27;99108.61;;;25.03;56.81
65872;BME280;52653;50.080;21.992;2023-06-19T05:29:00;99114.05;;;25.34;54.95
65872;BME280;52653;50.080;21.992;2023-06-19T05:31:33;99114.86;;;25.20;53.07
65872;BME280;52653;50.080;21.992;2023-06-19T05:34:05;99121.91;;;24.79;53.53
65872;BME280;52653;50.080;21.992;2023-06-19T05:36:39;99123.10;;;24.50;53.97
65872;BME280;52653;50.080;21.992;2023-06-19T05:39:11;99125.81;;;24.03;53.30
65872;BME280;52653;50.080;21.992;2023-06-19T05:41:44;99127.61;;;23.52;53.98
65872;BME280;52653;50.080;21.992;2023-06-19T05:44:18;99129.09;;;22.98;54.65
65872;BME280;52653;50.080;21.992;2023-06-19T05:46:51;99129.86;;;22.63;56.31
65872;BME280;52653;50.080;21.992;2023-06-19T05:49:23;99128.16;;;22.43;57.57
65872;BME280;52653;50.080;21.992;2023-06-19T05:51:56;99133.10;;;22.35;58.72
65872;BME280;52653;50.080;21.992;2023-06-19T05:54:30;99138.14;;;22.31;59.55
65872;BME280;52653;50.080;21.992;2023-06-19T05:57:05;99138.10;;;22.32;59.80
65872;BME280;52653;50.080;21.992;2023-06-19T05:59:37;99138.73;;;22.24;59.62
65872;BME280;52653;50.080;21.992;2023-06-19T06:02:10;99138.23;;;22.20;60.03
65872;BME280;52653;50.080;21.992;2023-06-19T06:04:43;99137.08;;;22.22;60.57
65872;BME280;52653;50.080;21.992;2023-06-19T06:07:16;99139.17;;;22.23;60.70
65872;BME280;52653;50.080;21.992;2023-06-19T06:09:50;99138.92;;;22.27;61.21
65872;BME280;52653;50.080;21.992;2023-06-19T06:12:22;99143.39;;;22.33;61.27
65872;BME280;52653;50.080;21.992;2023-06-19T06:14:55;99138.20;;;22.27;60.92
65872;BME280;52653;50.080;21.992;2023-06-19T06:17:27;99143.07;;;22.33;61.97
65872;BME280;52653;50.080;21.992;2023-06-19T06:20:00;99145.52;;;22.37;61.74
65872;BME280;52653;50.080;21.992;2023-06-19T06:22:36;99146.02;;;22.38;61.53
65872;BME280;52653;50.080;21.992;2023-06-19T06:25:10;99146.99;;;22.43;61.89
65872;BME280;52653;50.080;21.992;2023-06-19T06:27:44;99139.26;;;22.46;61.76
65872;BME280;52653;50.080;21.992;2023-06-19T06:30:17;99140.04;;;22.61;62.54
65872;BME280;52653;50.080;21.992;2023-06-19T06:32:52;99144.91;;;22.72;61.17
65872;BME280;52653;50.080;21.992;2023-06-19T06:35:25;99146.02;;;22.74;60.29
65872;BME280;52653;50.080;21.992;2023-06-19T06:37:57;99148.27;;;22.73;61.10
65872;BME280;52653;50.080;21.992;2023-06-19T06:40:30;99151.27;;;22.76;62.14
65872;BME280;52653;50.080;21.992;2023-06-19T06:43:02;99151.75;;;22.93;62.55
65872;BME280;52653;50.080;21.992;2023-06-19T06:45:35;99151.31;;;23.09;61.93
65872;BME280;52653;50.080;21.992;2023-06-19T06:48:11;99143.97;;;23.21;61.71
65872;BME280;52653;50.080;21.992;2023-06-19T06:50:44;99145.60;;;23.27;60.43
65872;BME280;52653;50.080;21.992;2023-06-19T06:53:17;99150.79;;;23.38;61.15
65872;BME280;52653;50.080;21.992;2023-06-19T06:55:49;99150.42;;;23.50;60.47
65872;BME280;52653;50.080;21.992;2023-06-19T06:58:23;99151.05;;;23.58;59.64
65872;BME280;52653;50.080;21.992;2023-06-19T07:00:56;99148.95;;;23.69;59.16
65872;BME280;52653;50.080;21.992;2023-06-19T07:03:29;99149.98;;;23.81;59.26
65872;BME280;52653;50.080;21.992;2023-06-19T07:06:03;99148.70;;;23.93;59.26
65872;BME280;52653;50.080;21.992;2023-06-19T07:08:35;99147.66;;;24.03;57.97
65872;BME280;52653;50.080;21.992;2023-06-19T07:11:09;99147.66;;;24.09;56.79
65872;BME280;52653;50.080;21.992;2023-06-19T07:13:42;99154.54;;;24.05;56.82
65872;BME280;52653;50.080;21.992;2023-06-19T07:16:15;99150.70;;;24.12;56.96
65872;BME280;52653;50.080;21.992;2023-06-19T07:18:48;99151.85;;;24.17;56.48
65872;BME280;52653;50.080;21.992;2023-06-19T07:21:21;99148.67;;;24.16;55.49
65872;BME280;52653;50.080;21.992;2023-06-19T07:23:54;99149.16;;;23.99;55.70
65872;BME280;52653;50.080;21.992;2023-06-19T07:26:27;99146.20;;;23.98;56.61
65872;BME280;52653;50.080;21.992;2023-06-19T07:28:59;99147.95;;;24.05;57.35
65872;BME280;52653;50.080;21.992;2023-06-19T07:31:32;99144.89;;;24.14;56.73
65872;BME280;52653;50.080;21.992;2023-06-19T07:34:04;99141.77;;;24.20;55.86
65872;BME280;52653;50.080;21.992;2023-06-19T07:36:38;99140.95;;;24.24;56.08
65872;BME280;52653;50.080;21.992;2023-06-19T07:39:12;99146.70;;;24.24;55.18
65872;BME280;52653;50.080;21.992;2023-06-19T07:41:48;99153.46;;;24.17;54.97
65872;BME280;52653;50.080;21.992;2023-06-19T07:44:20;99155.38;;;24.20;55.55
65872;BME280;52653;50.080;21.992;2023-06-19T07:46:53;99154.39;;;24.27;55.91
65872;BME280;52653;50.080;21.992;2023-06-19T07:49:31;99157.77;;;24.34;55.75
65872;BME280;52653;50.080;21.992;2023-06-19T07:52:05;99155.63;;;24.33;55.49
65872;BME280;52653;50.080;21.992;2023-06-19T07:54:38;99154.61;;;24.35;55.30
65872;BME280;52653;50.080;21.992;2023-06-19T07:57:21;99154.60;;;24.30;56.08
65872;BME280;52653;50.080;21.992;2023-06-19T07:59:55;99158.30;;;24.36;55.80
65872;BME280;52653;50.080;21.992;2023-06-19T08:02:27;99156.17;;;24.36;55.09
65872;BME280;52653;50.080;21.992;2023-06-19T08:05:00;99156.41;;;24.38;55.37
65872;BME280;52653;50.080;21.992;2023-06-19T08:07:34;99155.77;;;24.36;55.21
65872;BME280;52653;50.080;21.992;2023-06-19T08:10:09;99157.11;;;24.46;54.62
65872;BME280;52653;50.080;21.992;2023-06-19T08:12:45;99151.91;;;24.52;53.87
65872;BME280;52653;50.080;21.992;2023-06-19T08:15:18;99149.08;;;24.62;54.32
65872;BME280;52653;50.080;21.992;2023-06-19T08:17:50;99151.00;;;24.71;53.75
65872;BME280;52653;50.080;21.992;2023-06-19T08:20:23;99150.17;;;24.81;53.85
65872;BME280;52653;50.080;21.992;2023-06-19T08:22:58;99154.54;;;24.88;53.44
65872;BME280;52653;50.080;21.992;2023-06-19T08:25:31;99156.66;;;24.96;52.66
65872;BME280;52653;50.080;21.992;2023-06-19T08:28:04;99152.83;;;25.05;52.22
65872;BME280;52653;50.080;21.992;2023-06-19T08:30:37;99152.10;;;25.18;51.25
65872;BME280;52653;50.080;21.992;2023-06-19T08:33:10;99157.36;;;25.15;49.72
65872;BME280;52653;50.080;21.992;2023-06-19T08:35:49;99154.98;;;25.16;50.54
65872;BME280;52653;50.080;21.992;2023-06-19T08:38:22;99153.24;;;25.20;50.06
65872;BME280;52653;50.080;21.992;2023-06-19T08:40:55;99147.91;;;25.35;50.36
65872;BME280;52653;50.080;21.992;2023-06-19T08:43:28;99150.17;;;25.52;51.17
65872;BME280;52653;50.080;21.992;2023-06-19T08:46:09;99152.23;;;25.66;50.76
65872;BME280;52653;50.080;21.992;2023-06-19T08:48:42;99147.64;;;25.72;49.93
65872;BME280;52653;50.080;21.992;2023-06-19T08:51:15;99140.95;;;25.86;49.78
65872;BME280;52653;50.080;21.992;2023-06-19T08:53:49;99147.36;;;25.99;49.89
65872;BME280;52653;50.080;21.992;2023-06-19T08:56:23;99144.98;;;26.24;50.91
65872;BME280;52653;50.080;21.992;2023-06-19T08:58:56;99143.45;;;26.48;49.98
65872;BME280;52653;50.080;21.992;2023-06-19T09:01:29;99144.97;;;26.59;47.98
65872;BME280;52653;50.080;21.992;2023-06-19T09:04:11;99151.52;;;26.58;46.92
65872;BME280;52653;50.080;21.992;2023-06-19T09:06:52;99148.59;;;26.51;47.08
65872;BME280;52653;50.080;21.992;2023-06-19T09:09:26;99151.83;;;26.56;48.04
65872;BME280;52653;50.080;21.992;2023-06-19T09:12:03;99150.85;;;26.67;47.64
65872;BME280;52653;50.080;21.992;2023-06-19T09:14:41;99145.42;;;26.88;47.79
65872;BME280;52653;50.080;21.992;2023-06-19T09:17:19;99148.30;;;26.93;47.15
65872;BME280;52653;50.080;21.992;2023-06-19T09:19:55;99151.14;;;26.70;47.05
65872;BME280;52653;50.080;21.992;2023-06-19T09:22:30;99147.64;;;26.47;47.95
65872;BME280;52653;50.080;21.992;2023-06-19T09:25:04;99148.38;;;26.34;48.19
65872;BME280;52653;50.080;21.992;2023-06-19T09:27:37;99146.15;;;26.35;48.12
65872;BME280;52653;50.080;21.992;2023-06-19T09:30:16;99143.02;;;26.51;48.35
65872;BME280;52653;50.080;21.992;2023-06-19T09:32:50;99143.58;;;26.70;48.17
65872;BME280;52653;50.080;21.992;2023-06-19T09:35:23;99145.36;;;26.82;45.32
65872;BME280;52653;50.080;21.992;2023-06-19T09:37:59;99144.30;;;26.89;45.61
65872;BME280;52653;50.080;21.992;2023-06-19T09:40:33;99147.58;;;27.10;46.00
65872;BME280;52653;50.080;21.992;2023-06-19T09:43:06;99151.64;;;27.28;44.68
65872;BME280;52653;50.080;21.992;2023-06-19T09:45:40;99148.72;;;27.30;42.77
65872;BME280;52653;50.080;21.992;2023-06-19T09:48:17;99146.08;;;27.32;43.08
65872;BME280;52653;50.080;21.992;2023-06-19T09:50:58;99146.74;;;27.31;43.16
65872;BME280;52653;50.080;21.992;2023-06-19T09:53:32;99145.60;;;27.32;42.76
65872;BME280;52653;50.080;21.992;2023-06-19T09:56:06;99141.10;;;27.47;43.67
65872;BME280;52653;50.080;21.992;2023-06-19T09:58:42;99146.36;;;27.58;43.01
65872;BME280;52653;50.080;21.992;2023-06-19T10:01:17;99145.09;;;27.45;42.50
65872;BME280;52653;50.080;21.992;2023-06-19T10:03:50;99143.39;;;27.39;42.96
65872;BME280;52653;50.080;21.992;2023-06-19T10:06:23;99141.68;;;27.56;43.23
65872;BME280;52653;50.080;21.992;2023-06-19T10:09:05;99146.96;;;27.62;43.37
65872;BME280;52653;50.080;21.992;2023-06-19T10:11:50;99142.19;;;27.56;43.45
65872;BME280;52653;50.080;21.992;2023-06-19T10:14:24;99144.91;;;27.42;43.78
65872;BME280;52653;50.080;21.992;2023-06-19T10:16:56;99145.81;;;27.24;43.13
65872;BME280;52653;50.080;21.992;2023-06-19T10:19:29;99146.77;;;27.14;43.60
65872;BME280;52653;50.080;21.992;2023-06-19T10:22:06;99146.55;;;27.17;43.70
65872;BME280;52653;50.080;21.992;2023-06-19T10:24:39;99141.36;;;27.23;43.69
65872;BME280;52653;50.080;21.992;2023-06-19T10:27:23;99137.70;;;27.51;43.04
65872;BME280;52653;50.080;21.992;2023-06-19T10:29:57;99138.11;;;27.55;42.16
65872;BME280;52653;50.080;21.992;2023-06-19T10:32:41;99136.75;;;27.68;43.06
65872;BME280;52653;50.080;21.992;2023-06-19T10:35:13;99140.59;;;27.70;41.42
65872;BME280;52653;50.080;21.992;2023-06-19T10:37:47;99141.63;;;27.64;40.65
65872;BME280;52653;50.080;21.992;2023-06-19T10:40:20;99133.75;;;27.75;40.82
65872;BME280;52653;50.080;21.992;2023-06-19T10:42:53;99131.70;;;27.91;40.57
65872;BME280;52653;50.080;21.992;2023-06-19T10:45:25;99128.21;;;28.03;41.09
65872;BME280;52653;50.080;21.992;2023-06-19T10:48:02;99123.60;;;28.24;40.30
65872;BME280;52653;50.080;21.992;2023-06-19T10:50:43;99120.27;;;28.38;39.89
65872;BME280;52653;50.080;21.992;2023-06-19T10:53:26;99112.59;;;28.42;40.27
65872;BME280;52653;50.080;21.992;2023-06-19T10:56:00;99108.69;;;28.54;41.29
65872;BME280;52653;50.080;21.992;2023-06-19T10:58:32;99112.61;;;28.74;40.68
65872;BME280;52653;50.080;21.992;2023-06-19T11:01:05;99109.45;;;28.77;38.76
65872;BME280;52653;50.080;21.992;2023-06-19T11:03:38;99109.59;;;28.56;38.76
65872;BME280;52653;50.080;21.992;2023-06-19T11:06:11;99114.31;;;28.58;39.16
65872;BME280;52653;50.080;21.992;2023-06-19T11:08:52;99110.34;;;28.58;37.85
65872;BME280;52653;50.080;21.992;2023-06-19T11:11:24;99111.30;;;28.49;37.87
65872;BME280;52653;50.080;21.992;2023-06-19T11:14:06;99108.77;;;28.51;38.39
65872;BME280;52653;50.080;21.992;2023-06-19T11:16:42;99105.85;;;28.64;38.27
65872;BME280;52653;50.080;21.992;2023-06-19T11:19:18;99112.25;;;28.59;36.79
65872;BME280;52653;50.080;21.992;2023-06-19T11:21:51;99112.13;;;28.41;36.46
65872;BME280;52653;50.080;21.992;2023-06-19T11:24:25;99103.39;;;28.48;37.73
65872;BME280;52653;50.080;21.992;2023-06-19T11:26:58;99101.77;;;28.63;38.29
65872;BME280;52653;50.080;21.992;2023-06-19T11:29:33;99100.42;;;28.66;38.58
65872;BME280;52653;50.080;21.992;2023-06-19T11:32:09;99101.46;;;28.74;37.72
65872;BME280;52653;50.080;21.992;2023-06-19T11:34:43;99094.52;;;28.75;37.23
65872;BME280;52653;50.080;21.992;2023-06-19T11:37:17;99092.48;;;28.93;38.06
65872;BME280;52653;50.080;21.992;2023-06-19T11:39:51;99094.70;;;29.05;36.63
65872;BME280;52653;50.080;21.992;2023-06-19T11:42:24;99092.23;;;29.04;36.14
65872;BME280;52653;50.080;21.992;2023-06-19T11:44:59;99094.80;;;28.99;37.75
65872;BME280;52653;50.080;21.992;2023-06-19T11:47:33;99088.20;;;29.13;38.30
65872;BME280;52653;50.080;21.992;2023-06-19T11:50:12;99088.38;;;29.21;36.97
65872;BME280;52653;50.080;21.992;2023-06-19T11:52:46;99092.49;;;29.23;36.50
65872;BME280;52653;50.080;21.992;2023-06-19T11:55:19;99093.05;;;29.15;36.59
65872;BME280;52653;50.080;21.992;2023-06-19T11:57:52;99093.80;;;29.07;35.95
65872;BME280;52653;50.080;21.992;2023-06-19T12:00:25;99088.86;;;29.14;36.63
65872;BME280;52653;50.080;21.992;2023-06-19T12:02:58;99085.81;;;29.15;35.59
65872;BME280;52653;50.080;21.992;2023-06-19T12:05:31;99084.26;;;29.25;36.27
65872;BME280;52653;50.080;21.992;2023-06-19T12:08:04;99081.57;;;29.42;36.83
65872;BME280;52653;50.080;21.992;2023-06-19T12:10:37;99083.77;;;29.45;36.14
65872;BME280;52653;50.080;21.992;2023-06-19T12:13:10;99087.59;;;29.34;35.04
65872;BME280;52653;50.080;21.992;2023-06-19T12:15:43;99090.41;;;29.19;35.08
65872;BME280;52653;50.080;21.992;2023-06-19T12:18:15;99090.26;;;29.12;35.28
65872;BME280;52653;50.080;21.992;2023-06-19T12:20:48;99084.98;;;29.04;35.02
65872;BME280;52653;50.080;21.992;2023-06-19T12:23:21;99079.02;;;29.06;35.78
65872;BME280;52653;50.080;21.992;2023-06-19T12:25:54;99079.56;;;29.21;36.89
65872;BME280;52653;50.080;21.992;2023-06-19T12:28:29;99077.10;;;29.28;35.96
65872;BME280;52653;50.080;21.992;2023-06-19T12:31:02;99070.88;;;29.31;36.05
65872;BME280;52653;50.080;21.992;2023-06-19T12:33:35;99068.99;;;29.38;35.70
65872;BME280;52653;50.080;21.992;2023-06-19T12:36:14;99073.36;;;29.40;35.37
65872;BME280;52653;50.080;21.992;2023-06-19T12:38:51;99070.63;;;29.30;35.14
65872;BME280;52653;50.080;21.992;2023-06-19T12:41:25;99070.84;;;29.17;35.77
65872;BME280;52653;50.080;21.992;2023-06-19T12:43:58;99065.97;;;29.15;36.30
65872;BME280;52653;50.080;21.992;2023-06-19T12:46:31;99060.70;;;29.27;36.84
65872;BME280;52653;50.080;21.992;2023-06-19T12:49:04;99060.66;;;29.28;36.07
65872;BME280;52653;50.080;21.992;2023-06-19T12:51:37;99057.88;;;29.31;35.80
65872;BME280;52653;50.080;21.992;2023-06-19T12:54:10;99057.37;;;29.37;35.29
65872;BME280;52653;50.080;21.992;2023-06-19T12:56:44;99055.91;;;29.48;34.58
65872;BME280;52653;50.080;21.992;2023-06-19T12:59:17;99047.00;;;29.58;34.35
65872;BME280;52653;50.080;21.992;2023-06-19T13:01:50;99046.20;;;29.69;35.14
65872;BME280;52653;50.080;21.992;2023-06-19T13:04:23;99038.55;;;29.66;34.73
65872;BME280;52653;50.080;21.992;2023-06-19T13:06:57;99050.67;;;29.37;34.52
65872;BME280;52653;50.080;21.992;2023-06-19T13:09:31;99048.89;;;29.20;34.24
65872;BME280;52653;50.080;21.992;2023-06-19T13:12:05;99043.79;;;29.17;35.10
65872;BME280;52653;50.080;21.992;2023-06-19T13:14:38;99043.90;;;29.09;34.46
65872;BME280;52653;50.080;21.992;2023-06-19T13:17:10;99038.05;;;29.12;35.22
65872;BME280;52653;50.080;21.992;2023-06-19T13:19:44;99039.80;;;29.04;33.91
65872;BME280;52653;50.080;21.992;2023-06-19T13:22:17;99035.66;;;28.96;34.06
65872;BME280;52653;50.080;21.992;2023-06-19T13:24:54;99031.53;;;28.93;34.35